Accueil
METAR-TAF:

METAR-TAF

Aéroports :

Cervia, Italie

latitude: 44-13N, longitude: 012-18E, altitude: 6 m

Observation

Le bulletin a été fait il y a 52 minutes, à 21:55 UTC
Vent 4 kt de sud/sud-ouest
Température 15°C
Humidité 88%
Pression 1003 hPa
Visibilité 10 km ou plus
pas de nuages en-dessous de 1500 mètres et pas de cumulonimbus.

METAR: LIPC 262155Z 21004KT CAVOK 15/13 Q1003 RMK SKC VIS MIN 9999 WIND THR11 21004KT WIND THR29 22004KT BLU

Heure: 00:47 (22:47 UTC)

Prévision

Le bulletin a été fait il y a 2 heures et 47 minutes, à 20:00 UTC
Prévision valable du 26 à 21 UTC au 27 à 06 UTC
Vent 6 kt de sud
Visibilité 10 km ou plus
pas de nuages en-dessous de 1500 mètres et pas de cumulonimbus.

TAF: LIPC 262000Z 2621/2706 18006KT CAVOK

Observations et prévisions météorologiques de plus de 4000 aéroports (messages METAR et TAF).

Les stations disponibles sont représentées par des disques jaunes et rouges sur la carte.

Passer la souris dessus pour voir le nom de la station.

Cliquer dessus pour voir les observations et prévisions météorologiques.

Pour changer de carte: cliquez sur les boutons verts avec une croix noire pour zoomer, sur le bouton vert avec un tiret pour effectuer un zoom arrière, ou sur les flèches vertes pour les cartes adjacentes.


METAR-TAF: